메인 페이지
METAR-TAF:

METAR-TAF

공항 :

호니아라, 과달카날 섬, 솔로몬 제도

호니아라 국제공항

위도: 09-25S, 경도: 160-03E, 고도: 8m

현재 날씨관측

예보는 27분 전, 07:00시(UTC)에 발표되었습니다.
남남서5kt
온도 29°C
습도 79%
기압 1006 hPa
시정 10km 이상
고도 1800ft 상공 구름 조금
고도 2000ft 상공 구름 조금, 적란운.
고도 10000ft 상공 구름 보통
고도 30000ft 상공 구름 많음

METAR: AGGH 250700Z 20005KT 9999 FEW018 FEW020CB SCT100 BKN300 29/25 Q1006

시각: 18:27 (07:27 UTC)

예보

예보는 2 시간 37분 전, 04:50시(UTC)에 발표되었습니다.
예보 대상 시간: 25일 06시부터 26일 06시까지 (UTC)
북북서8kt
시정 10km 이상
고도 1700ft 상공 구름 조금
고도 2800ft 상공 구름 보통
확률 40%
IN시부터 TE시까지 (UTC)
시정: 1007m
고도 1800ft 상공 구름 보통
고도 1900ft 상공 구름 조금, 적란운.

TAF: AGGH 250450Z 2506/2606 34008KT 9999 FEW017 SCT028 PROB40 INTER 2506/2510 9999 -TSSH SCT018 FEW019CB T 30 28 27 25 Q 1006 1008 1009 1007

4,000개 이상의 공항 관측 자료 및 예보 (METAR 및 TAF 보고).

지도상에서 검색 가능한 기상관측소가 노란 점과 빨간 점으로 표시되어 있습니다.

기상관측소 명을 보려면 표시 위로 마우스를 이동하세요.

날씨 관측과 예보를 보려면 클릭하세요.

지도 변경 : 확대하려면 엑스 표시가 있는 녹색 버튼, 축소하려면 빼기 표시가 있는 녹색 버튼, 다음 페이지의 지도를 보려면 녹색 화살표를 클릭하세요.


METAR-TAF: